sensor_id;sensor_type;location;lat;lon;timestamp;pressure;altitude;pressure_sealevel;temperature;humidity
3102;BME280;1561;42.666;23.392;2022-11-20T00:01:04;94400.44;;;14.45;100.00
3102;BME280;1561;42.666;23.392;2022-11-20T00:03:35;94501.06;;;15.11;100.00
3102;BME280;1561;42.666;23.392;2022-11-20T00:06:21;94500.66;;;14.92;100.00
3102;BME280;1561;42.666;23.392;2022-11-20T00:09:00;94523.34;;;14.88;100.00
3102;BME280;1561;42.666;23.392;2022-11-20T00:11:32;94510.66;;;14.79;100.00
3102;BME280;1561;42.666;23.392;2022-11-20T00:14:08;94499.72;;;14.93;100.00
3102;BME280;1561;42.666;23.392;2022-11-20T00:16:43;94512.44;;;14.86;100.00
3102;BME280;1561;42.666;23.392;2022-11-20T00:19:15;94465.75;;;14.67;100.00
3102;BME280;1561;42.666;23.392;2022-11-20T00:21:45;94502.59;;;14.90;100.00
3102;BME280;1561;42.666;23.392;2022-11-20T00:24:16;94471.78;;;14.82;100.00
3102;BME280;1561;42.666;23.392;2022-11-20T00:26:50;94454.41;;;14.84;100.00
3102;BME280;1561;42.666;23.392;2022-11-20T00:29:23;94484.41;;;14.99;100.00
3102;BME280;1561;42.666;23.392;2022-11-20T00:31:52;94482.50;;;15.54;100.00
3102;BME280;1561;42.666;23.392;2022-11-20T00:34:25;94467.81;;;15.40;100.00
3102;BME280;1561;42.666;23.392;2022-11-20T00:37:01;94473.53;;;15.20;100.00
3102;BME280;1561;42.666;23.392;2022-11-20T00:39:32;94472.44;;;15.14;100.00
3102;BME280;1561;42.666;23.392;2022-11-20T00:42:08;94485.63;;;15.11;100.00
3102;BME280;1561;42.666;23.392;2022-11-20T00:44:46;94409.09;;;14.52;100.00
3102;BME280;1561;42.666;23.392;2022-11-20T00:47:17;94414.34;;;14.59;100.00
3102;BME280;1561;42.666;23.392;2022-11-20T00:49:57;94486.28;;;15.13;100.00
3102;BME280;1561;42.666;23.392;2022-11-20T00:52:24;94497.72;;;15.33;100.00
3102;BME280;1561;42.666;23.392;2022-11-20T00:54:54;94474.38;;;15.43;100.00
3102;BME280;1561;42.666;23.392;2022-11-20T00:57:25;94507.22;;;15.63;100.00
3102;BME280;1561;42.666;23.392;2022-11-20T00:59:57;94476.03;;;15.36;100.00
3102;BME280;1561;42.666;23.392;2022-11-20T01:02:34;94491.47;;;16.03;100.00
3102;BME280;1561;42.666;23.392;2022-11-20T01:05:24;94493.91;;;15.60;100.00
3102;BME280;1561;42.666;23.392;2022-11-20T01:07:59;94511.97;;;15.74;100.00
3102;BME280;1561;42.666;23.392;2022-11-20T01:10:51;94469.38;;;16.09;100.00
3102;BME280;1561;42.666;23.392;2022-11-20T01:13:19;94454.13;;;16.36;100.00
3102;BME280;1561;42.666;23.392;2022-11-20T01:16:11;94447.25;;;16.87;100.00
3102;BME280;1561;42.666;23.392;2022-11-20T01:18:44;94471.66;;;16.85;100.00
3102;BME280;1561;42.666;23.392;2022-11-20T01:21:29;94448.88;;;16.44;100.00
3102;BME280;1561;42.666;23.392;2022-11-20T01:24:01;94457.09;;;16.48;100.00
3102;BME280;1561;42.666;23.392;2022-11-20T01:26:35;94470.91;;;16.32;100.00
3102;BME280;1561;42.666;23.392;2022-11-20T01:29:29;94457.94;;;16.26;100.00
3102;BME280;1561;42.666;23.392;2022-11-20T01:31:57;94402.72;;;16.06;100.00
3102;BME280;1561;42.666;23.392;2022-11-20T01:34:28;94373.75;;;15.89;100.00
3102;BME280;1561;42.666;23.392;2022-11-20T01:37:09;94449.38;;;16.11;100.00
3102;BME280;1561;42.666;23.392;2022-11-20T01:39:37;94433.59;;;15.91;100.00
3102;BME280;1561;42.666;23.392;2022-11-20T01:42:07;94441.38;;;15.69;100.00
3102;BME280;1561;42.666;23.392;2022-11-20T01:44:57;94444.56;;;15.71;100.00
3102;BME280;1561;42.666;23.392;2022-11-20T01:47:38;94447.16;;;15.48;100.00
3102;BME280;1561;42.666;23.392;2022-11-20T01:50:12;94445.25;;;15.42;100.00
3102;BME280;1561;42.666;23.392;2022-11-20T01:53:10;94424.69;;;15.12;100.00
3102;BME280;1561;42.666;23.392;2022-11-20T01:55:45;94445.16;;;15.36;100.00
3102;BME280;1561;42.666;23.392;2022-11-20T01:58:17;94424.50;;;15.44;100.00
3102;BME280;1561;42.666;23.392;2022-11-20T02:00:50;94336.81;;;15.23;100.00
3102;BME280;1561;42.666;23.392;2022-11-20T02:03:19;94435.84;;;15.94;100.00
3102;BME280;1561;42.666;23.392;2022-11-20T02:06:04;94416.19;;;16.74;100.00
3102;BME280;1561;42.666;23.392;2022-11-20T02:08:53;94436.16;;;16.87;100.00
3102;BME280;1561;42.666;23.392;2022-11-20T02:11:30;94420.09;;;16.56;100.00
3102;BME280;1561;42.666;23.392;2022-11-20T02:14:01;94437.59;;;16.31;100.00
3102;BME280;1561;42.666;23.392;2022-11-20T02:16:46;94303.94;;;15.33;100.00
3102;BME280;1561;42.666;23.392;2022-11-20T02:19:24;94456.66;;;16.07;100.00
3102;BME280;1561;42.666;23.392;2022-11-20T02:22:05;94445.19;;;16.10;100.00
3102;BME280;1561;42.666;23.392;2022-11-20T02:24:41;94415.28;;;16.67;100.00
3102;BME280;1561;42.666;23.392;2022-11-20T02:27:13;94446.41;;;16.80;100.00
3102;BME280;1561;42.666;23.392;2022-11-20T02:29:44;94348.34;;;15.86;100.00
3102;BME280;1561;42.666;23.392;2022-11-20T02:32:26;94437.31;;;16.84;100.00
3102;BME280;1561;42.666;23.392;2022-11-20T02:35:05;94459.78;;;16.17;100.00
3102;BME280;1561;42.666;23.392;2022-11-20T02:37:54;94449.69;;;15.93;100.00
3102;BME280;1561;42.666;23.392;2022-11-20T02:40:27;94444.28;;;16.03;100.00
3102;BME280;1561;42.666;23.392;2022-11-20T02:43:01;94441.41;;;16.35;100.00
3102;BME280;1561;42.666;23.392;2022-11-20T02:45:48;94459.41;;;16.43;100.00
3102;BME280;1561;42.666;23.392;2022-11-20T02:48:16;94426.19;;;16.11;100.00
3102;BME280;1561;42.666;23.392;2022-11-20T02:50:45;94424.84;;;16.15;100.00
3102;BME280;1561;42.666;23.392;2022-11-20T02:53:17;94442.47;;;16.84;100.00
3102;BME280;1561;42.666;23.392;2022-11-20T02:55:48;94472.25;;;17.51;100.00
3102;BME280;1561;42.666;23.392;2022-11-20T02:58:21;94470.03;;;17.48;100.00
3102;BME280;1561;42.666;23.392;2022-11-20T03:00:56;94494.44;;;17.46;100.00
3102;BME280;1561;42.666;23.392;2022-11-20T03:03:26;94483.53;;;17.65;100.00
3102;BME280;1561;42.666;23.392;2022-11-20T03:06:00;94433.94;;;17.55;100.00
3102;BME280;1561;42.666;23.392;2022-11-20T03:08:32;94512.34;;;18.31;100.00
3102;BME280;1561;42.666;23.392;2022-11-20T03:11:07;94455.53;;;18.72;100.00
3102;BME280;1561;42.666;23.392;2022-11-20T03:13:37;94466.88;;;19.18;100.00
3102;BME280;1561;42.666;23.392;2022-11-20T03:16:15;94482.38;;;19.11;100.00
3102;BME280;1561;42.666;23.392;2022-11-20T03:19:12;94468.22;;;19.07;100.00
3102;BME280;1561;42.666;23.392;2022-11-20T03:21:50;94466.91;;;18.43;100.00
3102;BME280;1561;42.666;23.392;2022-11-20T03:24:20;94488.53;;;18.36;100.00
3102;BME280;1561;42.666;23.392;2022-11-20T03:27:05;94494.38;;;18.78;100.00
3102;BME280;1561;42.666;23.392;2022-11-20T03:29:33;94494.53;;;19.04;100.00
3102;BME280;1561;42.666;23.392;2022-11-20T03:32:03;94476.72;;;18.88;100.00
3102;BME280;1561;42.666;23.392;2022-11-20T03:34:39;94520.81;;;19.08;100.00
3102;BME280;1561;42.666;23.392;2022-11-20T03:37:08;94504.22;;;18.96;100.00
3102;BME280;1561;42.666;23.392;2022-11-20T03:39:43;94509.00;;;19.26;100.00
3102;BME280;1561;42.666;23.392;2022-11-20T03:42:22;94499.34;;;18.73;100.00
3102;BME280;1561;42.666;23.392;2022-11-20T03:45:08;94518.69;;;18.50;100.00
3102;BME280;1561;42.666;23.392;2022-11-20T03:47:51;94498.88;;;18.36;100.00
3102;BME280;1561;42.666;23.392;2022-11-20T03:50:24;94532.41;;;18.78;100.00
3102;BME280;1561;42.666;23.392;2022-11-20T03:52:55;94516.03;;;19.05;100.00
3102;BME280;1561;42.666;23.392;2022-11-20T03:55:26;94513.63;;;19.03;100.00
3102;BME280;1561;42.666;23.392;2022-11-20T03:58:00;94505.59;;;18.58;100.00
3102;BME280;1561;42.666;23.392;2022-11-20T04:00:32;94523.34;;;18.33;100.00
3102;BME280;1561;42.666;23.392;2022-11-20T04:03:02;94499.00;;;18.28;100.00
3102;BME280;1561;42.666;23.392;2022-11-20T04:05:37;94504.88;;;18.43;100.00
3102;BME280;1561;42.666;23.392;2022-11-20T04:08:10;94502.59;;;18.88;100.00
3102;BME280;1561;42.666;23.392;2022-11-20T04:11:10;94471.56;;;18.61;100.00
3102;BME280;1561;42.666;23.392;2022-11-20T04:13:50;94520.00;;;19.07;100.00
3102;BME280;1561;42.666;23.392;2022-11-20T04:16:26;94515.13;;;18.85;100.00
3102;BME280;1561;42.666;23.392;2022-11-20T04:19:12;94528.13;;;18.64;100.00
3102;BME280;1561;42.666;23.392;2022-11-20T04:21:42;94525.22;;;18.73;100.00
3102;BME280;1561;42.666;23.392;2022-11-20T04:24:15;94533.13;;;18.65;100.00
3102;BME280;1561;42.666;23.392;2022-11-20T04:26:46;94529.50;;;18.60;100.00
3102;BME280;1561;42.666;23.392;2022-11-20T04:29:32;94530.50;;;18.93;100.00
3102;BME280;1561;42.666;23.392;2022-11-20T04:32:00;94538.75;;;18.75;100.00
3102;BME280;1561;42.666;23.392;2022-11-20T04:34:36;94537.13;;;18.68;100.00
3102;BME280;1561;42.666;23.392;2022-11-20T04:37:06;94531.03;;;18.54;100.00
3102;BME280;1561;42.666;23.392;2022-11-20T04:39:49;94514.25;;;18.44;100.00
3102;BME280;1561;42.666;23.392;2022-11-20T04:42:22;94525.50;;;18.57;100.00
3102;BME280;1561;42.666;23.392;2022-11-20T04:44:57;94544.59;;;18.56;100.00
3102;BME280;1561;42.666;23.392;2022-11-20T04:47:27;94538.75;;;18.75;100.00
3102;BME280;1561;42.666;23.392;2022-11-20T04:49:58;94453.84;;;18.30;100.00
3102;BME280;1561;42.666;23.392;2022-11-20T04:52:39;94520.78;;;18.67;100.00
3102;BME280;1561;42.666;23.392;2022-11-20T04:55:07;94521.44;;;18.76;100.00
3102;BME280;1561;42.666;23.392;2022-11-20T04:57:35;94394.41;;;18.03;100.00
3102;BME280;1561;42.666;23.392;2022-11-20T05:00:22;94496.59;;;18.47;100.00
3102;BME280;1561;42.666;23.392;2022-11-20T05:02:50;94481.63;;;18.43;100.00
3102;BME280;1561;42.666;23.392;2022-11-20T05:05:24;94511.00;;;18.63;100.00
3102;BME280;1561;42.666;23.392;2022-11-20T05:07:58;94482.66;;;18.48;100.00
3102;BME280;1561;42.666;23.392;2022-11-20T05:10:32;94502.97;;;18.51;100.00
3102;BME280;1561;42.666;23.392;2022-11-20T05:13:04;94522.41;;;18.41;100.00
3102;BME280;1561;42.666;23.392;2022-11-20T05:15:45;94524.44;;;18.31;100.00
3102;BME280;1561;42.666;23.392;2022-11-20T05:18:25;94524.31;;;18.11;100.00
3102;BME280;1561;42.666;23.392;2022-11-20T05:20:55;94505.59;;;17.88;100.00
3102;BME280;1561;42.666;23.392;2022-11-20T05:23:29;94484.41;;;17.57;100.00
3102;BME280;1561;42.666;23.392;2022-11-20T05:26:00;94511.28;;;17.42;100.00
3102;BME280;1561;42.666;23.392;2022-11-20T05:28:34;94497.75;;;17.40;100.00
3102;BME280;1561;42.666;23.392;2022-11-20T05:31:11;94491.50;;;17.34;100.00
3102;BME280;1561;42.666;23.392;2022-11-20T05:33:40;94495.06;;;17.33;100.00
3102;BME280;1561;42.666;23.392;2022-11-20T05:36:13;94495.34;;;17.24;100.00
3102;BME280;1561;42.666;23.392;2022-11-20T05:38:48;94496.16;;;17.24;100.00
3102;BME280;1561;42.666;23.392;2022-11-20T05:41:46;94471.63;;;17.14;100.00
3102;BME280;1561;42.666;23.392;2022-11-20T05:44:33;94473.94;;;17.09;100.00
3102;BME280;1561;42.666;23.392;2022-11-20T05:47:19;94494.91;;;17.35;100.00
3102;BME280;1561;42.666;23.392;2022-11-20T05:49:55;94493.31;;;17.34;100.00
3102;BME280;1561;42.666;23.392;2022-11-20T05:52:28;94465.38;;;17.23;100.00
3102;BME280;1561;42.666;23.392;2022-11-20T05:54:59;94464.00;;;17.41;100.00
3102;BME280;1561;42.666;23.392;2022-11-20T05:57:27;94447.84;;;17.39;100.00
3102;BME280;1561;42.666;23.392;2022-11-20T05:59:56;94459.69;;;17.48;100.00
3102;BME280;1561;42.666;23.392;2022-11-20T06:02:36;94431.00;;;17.22;100.00
3102;BME280;1561;42.666;23.392;2022-11-20T06:05:07;94487.75;;;17.51;100.00
3102;BME280;1561;42.666;23.392;2022-11-20T06:07:35;94479.41;;;17.49;100.00
3102;BME280;1561;42.666;23.392;2022-11-20T06:10:05;94477.53;;;17.43;100.00
3102;BME280;1561;42.666;23.392;2022-11-20T06:12:39;94508.31;;;17.59;100.00
3102;BME280;1561;42.666;23.392;2022-11-20T06:15:11;94468.03;;;17.65;100.00
3102;BME280;1561;42.666;23.392;2022-11-20T06:17:44;94490.34;;;17.72;100.00
3102;BME280;1561;42.666;23.392;2022-11-20T06:20:14;94497.94;;;17.74;100.00
3102;BME280;1561;42.666;23.392;2022-11-20T06:22:49;94465.25;;;17.45;100.00
3102;BME280;1561;42.666;23.392;2022-11-20T06:25:20;94506.94;;;17.84;100.00
3102;BME280;1561;42.666;23.392;2022-11-20T06:27:53;94519.03;;;17.77;100.00
3102;BME280;1561;42.666;23.392;2022-11-20T06:30:24;94512.97;;;17.70;100.00
3102;BME280;1561;42.666;23.392;2022-11-20T06:32:57;94511.09;;;17.79;100.00
3102;BME280;1561;42.666;23.392;2022-11-20T06:35:33;94511.34;;;17.84;100.00
3102;BME280;1561;42.666;23.392;2022-11-20T06:38:03;94507.94;;;17.83;100.00
3102;BME280;1561;42.666;23.392;2022-11-20T06:40:39;94509.47;;;17.78;100.00
3102;BME280;1561;42.666;23.392;2022-11-20T06:43:14;94460.25;;;17.44;100.00
3102;BME280;1561;42.666;23.392;2022-11-20T06:45:44;94511.03;;;17.72;100.00
3102;BME280;1561;42.666;23.392;2022-11-20T06:48:20;94506.22;;;17.69;100.00
3102;BME280;1561;42.666;23.392;2022-11-20T06:50:51;94490.59;;;17.77;100.00
3102;BME280;1561;42.666;23.392;2022-11-20T06:53:21;94531.00;;;17.85;100.00
3102;BME280;1561;42.666;23.392;2022-11-20T06:55:55;94512.50;;;17.81;100.00
3102;BME280;1561;42.666;23.392;2022-11-20T06:58:23;94522.78;;;17.96;100.00
3102;BME280;1561;42.666;23.392;2022-11-20T07:00:57;94534.38;;;18.06;100.00
3102;BME280;1561;42.666;23.392;2022-11-20T07:03:37;94542.59;;;18.10;100.00
3102;BME280;1561;42.666;23.392;2022-11-20T07:06:09;94550.34;;;18.10;100.00
3102;BME280;1561;42.666;23.392;2022-11-20T07:08:38;94534.38;;;18.06;100.00
3102;BME280;1561;42.666;23.392;2022-11-20T07:11:20;94545.13;;;18.03;100.00
3102;BME280;1561;42.666;23.392;2022-11-20T07:13:51;94535.19;;;18.07;100.00
3102;BME280;1561;42.666;23.392;2022-11-20T07:16:23;94520.09;;;18.10;100.00
3102;BME280;1561;42.666;23.392;2022-11-20T07:18:56;94529.34;;;18.19;100.00
3102;BME280;1561;42.666;23.392;2022-11-20T07:21:37;94457.75;;;17.71;100.00
3102;BME280;1561;42.666;23.392;2022-11-20T07:24:07;94550.28;;;18.24;100.00
3102;BME280;1561;42.666;23.392;2022-11-20T07:26:40;94541.59;;;18.11;100.00
3102;BME280;1561;42.666;23.392;2022-11-20T07:29:21;94532.13;;;18.18;100.00
3102;BME280;1561;42.666;23.392;2022-11-20T07:31:53;94535.44;;;18.12;100.00
3102;BME280;1561;42.666;23.392;2022-11-20T07:34:26;94530.91;;;18.14;100.00
3102;BME280;1561;42.666;23.392;2022-11-20T07:36:57;94536.53;;;18.24;100.00
3102;BME280;1561;42.666;23.392;2022-11-20T07:39:36;94539.28;;;18.37;100.00
3102;BME280;1561;42.666;23.392;2022-11-20T07:42:03;94554.22;;;18.41;100.00
3102;BME280;1561;42.666;23.392;2022-11-20T07:44:39;94548.03;;;18.36;100.00
3102;BME280;1561;42.666;23.392;2022-11-20T07:47:12;94449.25;;;17.56;100.00
3102;BME280;1561;42.666;23.392;2022-11-20T07:49:45;94525.66;;;18.07;100.00
3102;BME280;1561;42.666;23.392;2022-11-20T07:52:16;94547.13;;;18.29;100.00
3102;BME280;1561;42.666;23.392;2022-11-20T07:54:47;94550.41;;;18.16;100.00
3102;BME280;1561;42.666;23.392;2022-11-20T07:57:28;94524.81;;;18.00;100.00
3102;BME280;1561;42.666;23.392;2022-11-20T08:00:02;94553.59;;;18.18;100.00
3102;BME280;1561;42.666;23.392;2022-11-20T08:02:36;94544.44;;;18.16;100.00
3102;BME280;1561;42.666;23.392;2022-11-20T08:05:07;94566.81;;;18.30;100.00
3102;BME280;1561;42.666;23.392;2022-11-20T08:07:41;94568.63;;;18.29;100.00
3102;BME280;1561;42.666;23.392;2022-11-20T08:10:13;94561.19;;;18.41;100.00
3102;BME280;1561;42.666;23.392;2022-11-20T08:12:46;94559.41;;;18.20;100.00
3102;BME280;1561;42.666;23.392;2022-11-20T08:15:31;94525.09;;;18.12;100.00
3102;BME280;1561;42.666;23.392;2022-11-20T08:18:05;94536.91;;;18.42;100.00
3102;BME280;1561;42.666;23.392;2022-11-20T08:21:04;94533.91;;;18.38;100.00
3102;BME280;1561;42.666;23.392;2022-11-20T08:23:37;94500.28;;;18.17;100.00
3102;BME280;1561;42.666;23.392;2022-11-20T08:26:22;94516.19;;;18.35;100.00
3102;BME280;1561;42.666;23.392;2022-11-20T08:29:11;94478.63;;;18.18;100.00
3102;BME280;1561;42.666;23.392;2022-11-20T08:31:42;94533.13;;;18.65;100.00
3102;BME280;1561;42.666;23.392;2022-11-20T08:34:22;94534.66;;;18.60;100.00
3102;BME280;1561;42.666;23.392;2022-11-20T08:36:57;94544.41;;;18.58;100.00
3102;BME280;1561;42.666;23.392;2022-11-20T08:39:35;94537.72;;;18.70;100.00
3102;BME280;1561;42.666;23.392;2022-11-20T08:45:09;94536.13;;;18.69;100.00
3102;BME280;1561;42.666;23.392;2022-11-20T08:47:59;94537.44;;;18.86;100.00
3102;BME280;1561;42.666;23.392;2022-11-20T08:50:27;94533.13;;;18.65;100.00
3102;BME280;1561;42.666;23.392;2022-11-20T08:53:07;94548.78;;;18.57;100.00
3102;BME280;1561;42.666;23.392;2022-11-20T08:55:39;94547.53;;;18.32;100.00
3102;BME280;1561;42.666;23.392;2022-11-20T08:58:09;94597.22;;;18.42;100.00
3102;BME280;1561;42.666;23.392;2022-11-20T09:00:38;94589.84;;;18.25;100.00
3102;BME280;1561;42.666;23.392;2022-11-20T09:03:14;94586.09;;;18.27;100.00
3102;BME280;1561;42.666;23.392;2022-11-20T09:05:43;94580.38;;;18.11;100.00
3102;BME280;1561;42.666;23.392;2022-11-20T09:08:13;94580.69;;;18.22;100.00
3102;BME280;1561;42.666;23.392;2022-11-20T09:10:43;94583.84;;;18.18;100.00
3102;BME280;1561;42.666;23.392;2022-11-20T09:13:14;94505.53;;;17.61;100.00
3102;BME280;1561;42.666;23.392;2022-11-20T09:15:55;94593.97;;;18.19;100.00
3102;BME280;1561;42.666;23.392;2022-11-20T09:18:26;94593.53;;;17.95;100.00
3102;BME280;1561;42.666;23.392;2022-11-20T09:21:01;94570.47;;;17.58;100.00
3102;BME280;1561;42.666;23.392;2022-11-20T09:23:31;94584.28;;;17.65;100.00
3102;BME280;1561;42.666;23.392;2022-11-20T09:26:02;94549.63;;;17.30;100.00
3102;BME280;1561;42.666;23.392;2022-11-20T09:28:36;94588.75;;;17.13;100.00
3102;BME280;1561;42.666;23.392;2022-11-20T09:31:21;94582.50;;;17.07;100.00
3102;BME280;1561;42.666;23.392;2022-11-20T09:33:57;94581.97;;;16.97;100.00
3102;BME280;1561;42.666;23.392;2022-11-20T09:36:33;94570.81;;;16.82;100.00
3102;BME280;1561;42.666;23.392;2022-11-20T09:39:11;94571.34;;;16.63;100.00
3102;BME280;1561;42.666;23.392;2022-11-20T09:41:55;94565.22;;;16.64;100.00
3102;BME280;1561;42.666;23.392;2022-11-20T09:44:56;94562.81;;;16.77;100.00
3102;BME280;1561;42.666;23.392;2022-11-20T09:47:42;94544.66;;;16.42;100.00
3102;BME280;1561;42.666;23.392;2022-11-20T09:50:30;94555.59;;;16.58;100.00
3102;BME280;1561;42.666;23.392;2022-11-20T09:53:15;94562.59;;;16.49;100.00
3102;BME280;1561;42.666;23.392;2022-11-20T09:55:49;94562.47;;;16.28;100.00
3102;BME280;1561;42.666;23.392;2022-11-20T09:58:27;94485.53;;;15.80;100.00
3102;BME280;1561;42.666;23.392;2022-11-20T10:01:15;94475.00;;;15.67;100.00
3102;BME280;1561;42.666;23.392;2022-11-20T10:03:56;94564.16;;;16.13;100.00
3102;BME280;1561;42.666;23.392;2022-11-20T10:06:30;94537.19;;;16.24;100.00
3102;BME280;1561;42.666;23.392;2022-11-20T10:09:16;94533.00;;;16.23;100.00
3102;BME280;1561;42.666;23.392;2022-11-20T10:12:09;94496.22;;;16.14;100.00
3102;BME280;1561;42.666;23.392;2022-11-20T10:14:57;94520.75;;;16.25;100.00
3102;BME280;1561;42.666;23.392;2022-11-20T10:17:54;94507.31;;;16.15;100.00
3102;BME280;1561;42.666;23.392;2022-11-20T10:20:34;94494.13;;;16.32;100.00
3102;BME280;1561;42.666;23.392;2022-11-20T10:32:07;94508.22;;;16.74;100.00
3102;BME280;1561;42.666;23.392;2022-11-20T10:34:45;94509.91;;;17.10;100.00
3102;BME280;1561;42.666;23.392;2022-11-20T10:37:18;94511.75;;;16.87;100.00
3102;BME280;1561;42.666;23.392;2022-11-20T10:39:53;94525.56;;;16.94;100.00
3102;BME280;1561;42.666;23.392;2022-11-20T10:42:37;94504.31;;;16.78;100.00
3102;BME280;1561;42.666;23.392;2022-11-20T10:45:18;94525.81;;;16.56;100.00
3102;BME280;1561;42.666;23.392;2022-11-20T10:48:19;94516.47;;;17.13;100.00
3102;BME280;1561;42.666;23.392;2022-11-20T10:51:09;94508.56;;;17.14;100.00
3102;BME280;1561;42.666;23.392;2022-11-20T10:54:09;94534.56;;;16.98;100.00
3102;BME280;1561;42.666;23.392;2022-11-20T10:56:45;94492.38;;;16.62;100.00
3102;BME280;1561;42.666;23.392;2022-11-20T11:02:19;94561.66;;;16.80;100.00
3102;BME280;1561;42.666;23.392;2022-11-20T11:05:12;94550.53;;;16.50;100.00
3102;BME280;1561;42.666;23.392;2022-11-20T11:08:04;94546.94;;;16.36;100.00
3102;BME280;1561;42.666;23.392;2022-11-20T11:10:46;94567.78;;;16.04;100.00
3102;BME280;1561;42.666;23.392;2022-11-20T11:13:36;94591.00;;;15.96;100.00
3102;BME280;1561;42.666;23.392;2022-11-20T11:16:04;94570.66;;;15.87;100.00
3102;BME280;1561;42.666;23.392;2022-11-20T11:18:43;94589.19;;;15.82;100.00
3102;BME280;1561;42.666;23.392;2022-11-20T11:21:22;94617.22;;;15.47;100.00
3102;BME280;1561;42.666;23.392;2022-11-20T11:23:59;94607.69;;;15.01;100.00
3102;BME280;1561;42.666;23.392;2022-11-20T11:26:52;94597.53;;;14.37;100.00
3102;BME280;1561;42.666;23.392;2022-11-20T11:29:23;94579.22;;;14.40;100.00
3102;BME280;1561;42.666;23.392;2022-11-20T11:32:14;94583.53;;;14.39;100.00
3102;BME280;1561;42.666;23.392;2022-11-20T11:35:07;94590.91;;;14.18;100.00
3102;BME280;1561;42.666;23.392;2022-11-20T11:38:04;94593.66;;;14.25;100.00
3102;BME280;1561;42.666;23.392;2022-11-20T11:40:35;94610.69;;;14.34;100.00
3102;BME280;1561;42.666;23.392;2022-11-20T11:43:18;94628.13;;;14.14;100.00
3102;BME280;1561;42.666;23.392;2022-11-20T11:46:23;94610.34;;;14.29;100.00
3102;BME280;1561;42.666;23.392;2022-11-20T11:48:59;94587.03;;;14.06;100.00
3102;BME280;1561;42.666;23.392;2022-11-20T11:51:38;94609.06;;;14.33;100.00
3102;BME280;1561;42.666;23.392;2022-11-20T11:54:17;94600.22;;;14.11;100.00
3102;BME280;1561;42.666;23.392;2022-11-20T11:56:53;94618.34;;;14.02;100.00
3102;BME280;1561;42.666;23.392;2022-11-20T11:59:27;94594.84;;;13.73;100.00
3102;BME280;1561;42.666;23.392;2022-11-20T12:02:00;94592.16;;;13.82;100.00
3102;BME280;1561;42.666;23.392;2022-11-20T12:04:42;94587.19;;;14.13;100.00
3102;BME280;1561;42.666;23.392;2022-11-20T12:07:26;94580.16;;;14.15;100.00
3102;BME280;1561;42.666;23.392;2022-11-20T12:10:16;94572.28;;;14.08;100.00
3102;BME280;1561;42.666;23.392;2022-11-20T12:12:50;94573.88;;;14.17;100.00
3102;BME280;1561;42.666;23.392;2022-11-20T12:15:33;94587.88;;;14.23;100.00
3102;BME280;1561;42.666;23.392;2022-11-20T12:18:19;94479.81;;;13.36;100.00
3102;BME280;1561;42.666;23.392;2022-11-20T12:20:55;94570.84;;;14.30;100.00
3102;BME280;1561;42.666;23.392;2022-11-20T12:23:39;94588.63;;;14.15;100.00
3102;BME280;1561;42.666;23.392;2022-11-20T12:26:23;94578.38;;;13.99;100.00
3102;BME280;1561;42.666;23.392;2022-11-20T12:29:06;94447.09;;;13.62;100.00
3102;BME280;1561;42.666;23.392;2022-11-20T12:31:55;94591.53;;;13.96;100.00
3102;BME280;1561;42.666;23.392;2022-11-20T12:34:47;94569.66;;;13.68;100.00
3102;BME280;1561;42.666;23.392;2022-11-20T12:37:32;94604.97;;;13.74;100.00
3102;BME280;1561;42.666;23.392;2022-11-20T12:40:23;94549.63;;;13.80;100.00
3102;BME280;1561;42.666;23.392;2022-11-20T12:43:05;94556.22;;;13.82;100.00
3102;BME280;1561;42.666;23.392;2022-11-20T12:46:11;94491.88;;;13.84;100.00
3102;BME280;1561;42.666;23.392;2022-11-20T12:52:31;94508.22;;;13.99;100.00
3102;BME280;1561;42.666;23.392;2022-11-20T12:55:28;94516.91;;;14.06;100.00
3102;BME280;1561;42.666;23.392;2022-11-20T12:58:17;94512.09;;;14.11;100.00
3102;BME280;1561;42.666;23.392;2022-11-20T13:00:56;94513.03;;;14.26;100.00
3102;BME280;1561;42.666;23.392;2022-11-20T13:03:38;94485.59;;;14.26;100.00
3102;BME280;1561;42.666;23.392;2022-11-20T13:06:15;94476.31;;;14.25;100.00
3102;BME280;1561;42.666;23.392;2022-11-20T13:08:52;94501.31;;;14.39;100.00
3102;BME280;1561;42.666;23.392;2022-11-20T13:11:30;94475.16;;;14.82;100.00
3102;BME280;1561;42.666;23.392;2022-11-20T13:14:24;94432.06;;;15.45;100.00
3102;BME280;1561;42.666;23.392;2022-11-20T13:17:09;94420.66;;;15.62;100.00
3102;BME280;1561;42.666;23.392;2022-11-20T13:19:41;94425.88;;;16.58;100.00
3102;BME280;1561;42.666;23.392;2022-11-20T13:22:25;94439.53;;;16.14;100.00
3102;BME280;1561;42.666;23.392;2022-11-20T13:25:21;94518.88;;;16.19;100.00
3102;BME280;1561;42.666;23.392;2022-11-20T13:27:56;94522.75;;;15.17;100.00
3102;BME280;1561;42.666;23.392;2022-11-20T13:30:48;94459.78;;;14.66;100.00
3102;BME280;1561;42.666;23.392;2022-11-20T13:33:26;94415.03;;;13.82;100.00
3102;BME280;1561;42.666;23.392;2022-11-20T13:35:57;94541.28;;;13.94;100.00
3102;BME280;1561;42.666;23.392;2022-11-20T13:38:39;94595.25;;;14.10;100.00
3102;BME280;1561;42.666;23.392;2022-11-20T13:41:10;94502.31;;;14.22;100.00
3102;BME280;1561;42.666;23.392;2022-11-20T13:44:10;94468.72;;;14.08;100.00
3102;BME280;1561;42.666;23.392;2022-11-20T13:46:51;94401.72;;;13.31;100.00
3102;BME280;1561;42.666;23.392;2022-11-20T13:49:31;94473.41;;;13.56;100.00
3102;BME280;1561;42.666;23.392;2022-11-20T13:52:33;94526.53;;;14.20;100.00
3102;BME280;1561;42.666;23.392;2022-11-20T13:55:19;94534.88;;;14.14;100.00
3102;BME280;1561;42.666;23.392;2022-11-20T13:57:59;94547.38;;;14.17;100.00
3102;BME280;1561;42.666;23.392;2022-11-20T14:00:44;94524.75;;;14.04;100.00
3102;BME280;1561;42.666;23.392;2022-11-20T14:03:21;94559.75;;;14.13;100.00
3102;BME280;1561;42.666;23.392;2022-11-20T14:05:51;94554.28;;;14.00;100.00
3102;BME280;1561;42.666;23.392;2022-11-20T14:08:27;94531.97;;;14.17;100.00
3102;BME280;1561;42.666;23.392;2022-11-20T14:11:11;94529.13;;;14.28;100.00
3102;BME280;1561;42.666;23.392;2022-11-20T14:13:55;94481.59;;;13.68;100.00